Time;durP1;ratioP1;P1;durP2;ratioP2;P2;SDS_P1;SDS_P2;PMS_P1;PMS_P2;Temp;Humidity;BMP_temperature;BMP_pressure;BME280_temperature;BME280_humidity;BME280_pressure;Samples;Min_cycle;Max_cycle;Signal;HPM_P1;HPM_P2
2022/06/15 00:01:15;;;;;;;3.50;2.72;;;12.20;99.90;;;;;;5001934;28;20201;-47
2022/06/15 00:03:44;;;;;;;4.65;2.75;;;12.20;99.90;;;;;;5002500;28;20346;-48
2022/06/15 00:06:15;;;;;;;7.22;4.35;;;12.20;99.90;;;;;;5002360;28;20461;-51
2022/06/15 00:08:45;;;;;;;5.00;3.60;;;12.20;99.90;;;;;;5002459;28;20269;-53
2022/06/15 00:11:17;;;;;;;8.43;4.18;;;12.20;99.90;;;;;;5002242;28;20208;-47
2022/06/15 00:13:45;;;;;;;3.55;3.20;;;12.10;99.90;;;;;;5002134;28;20295;-45
2022/06/15 00:16:13;;;;;;;5.15;3.42;;;12.00;99.90;;;;;;5002257;28;20236;-47
2022/06/15 00:18:44;;;;;;;5.32;3.47;;;12.00;99.90;;;;;;5001890;28;20216;-48
2022/06/15 00:21:13;;;;;;;3.17;2.88;;;12.10;99.90;;;;;;5002123;28;20300;-47
2022/06/15 00:23:40;;;;;;;5.18;2.85;;;12.00;99.90;;;;;;5001789;28;20524;-49
2022/06/15 00:26:08;;;;;;;3.53;3.17;;;12.00;99.90;;;;;;5002008;28;20582;-49
2022/06/15 00:28:35;;;;;;;4.63;2.65;;;12.00;99.90;;;;;;5001578;28;20216;-49
2022/06/15 00:31:03;;;;;;;8.73;3.55;;;12.00;99.90;;;;;;5002087;28;20690;-49
2022/06/15 00:33:35;;;;;;;3.42;3.13;;;12.00;99.90;;;;;;5001787;28;20251;-47
2022/06/15 00:36:08;;;;;;;4.00;3.40;;;12.00;99.90;;;;;;5001942;28;20221;-48
2022/06/15 00:38:42;;;;;;;4.43;3.40;;;11.90;99.90;;;;;;5001615;28;20353;-45
2022/06/15 00:41:14;;;;;;;7.93;3.53;;;11.80;99.90;;;;;;5002139;28;20200;-46
2022/06/15 00:43:44;;;;;;;7.60;3.90;;;11.60;99.90;;;;;;5001571;28;20200;-51
2022/06/15 00:46:22;;;;;;;4.90;4.15;;;11.60;99.90;;;;;;5001628;28;20340;-48
2022/06/15 00:49:06;;;;;;;3.72;3.38;;;11.60;99.90;;;;;;4999417;28;20205;-49
2022/06/15 00:51:33;;;;;;;2.95;2.38;;;11.60;99.90;;;;;;5001450;28;20218;-49
2022/06/15 00:54:01;;;;;;;5.20;3.58;;;11.60;99.90;;;;;;5001360;28;20228;-51
2022/06/15 00:56:30;;;;;;;3.42;3.05;;;11.70;99.90;;;;;;5001335;28;20200;-49
2022/06/15 00:59:03;;;;;;;6.47;3.88;;;11.80;99.90;;;;;;5001243;28;20216;-45
2022/06/15 01:01:30;;;;;;;4.45;3.50;;;11.70;99.90;;;;;;5000848;28;20274;-46
2022/06/15 01:03:59;;;;;;;5.97;3.75;;;11.60;99.90;;;;;;5001539;28;20471;-47
2022/06/15 01:06:38;;;;;;;3.15;2.80;;;11.60;99.90;;;;;;5000489;28;20204;-48
2022/06/15 01:09:20;;;;;;;3.72;3.03;;;11.50;99.90;;;;;;5001488;28;20450;-50
2022/06/15 01:11:54;;;;;;;4.05;3.20;;;11.40;99.90;;;;;;5000911;28;20204;-47
2022/06/15 01:14:41;;;;;;;5.03;3.90;;;11.40;99.90;;;;;;5001230;28;20595;-49
2022/06/15 01:17:17;;;;;;;3.28;2.83;;;11.40;99.90;;;;;;5001073;28;20210;-52
2022/06/15 01:20:05;;;;;;;3.28;2.92;;;11.40;99.90;;;;;;5000908;28;20208;-51
2022/06/15 01:22:55;;;;;;;5.30;3.58;;;11.40;99.90;;;;;;5001000;28;20204;-49
2022/06/15 01:25:45;;;;;;;6.50;3.22;;;11.40;99.90;;;;;;4997831;28;20288;-46
2022/06/15 01:28:46;;;;;;;3.40;3.10;;;11.40;99.90;;;;;;5000331;28;20403;-50
2022/06/15 01:31:35;;;;;;;3.38;3.08;;;11.40;99.90;;;;;;5001057;28;20243;-46
2022/06/15 01:34:11;;;;;;;4.03;3.58;;;11.40;99.90;;;;;;5003678;28;20223;-49
2022/06/15 01:36:45;;;;;;;6.88;3.10;;;11.40;99.90;;;;;;5001506;28;20395;-48
2022/06/15 01:39:20;;;;;;;6.57;4.03;;;11.40;99.90;;;;;;5000840;28;20215;-44
2022/06/15 01:41:50;;;;;;;3.60;2.88;;;11.30;99.90;;;;;;5000465;28;20199;-48
2022/06/15 01:44:32;;;;;;;4.13;3.70;;;11.30;99.90;;;;;;5001782;28;20231;-46
2022/06/15 01:47:06;;;;;;;3.33;3.00;;;11.30;99.90;;;;;;5001105;28;20295;-45
2022/06/15 01:49:40;;;;;;;3.15;2.88;;;11.20;99.90;;;;;;5000447;28;20210;-49
2022/06/15 01:52:11;;;;;;;4.47;3.22;;;11.20;99.90;;;;;;4999743;28;20205;-43
2022/06/15 01:54:42;;;;;;;4.80;3.88;;;11.10;99.90;;;;;;5000194;28;20259;-47
2022/06/15 01:57:11;;;;;;;3.15;2.80;;;11.10;99.90;;;;;;5000380;28;20200;-48
2022/06/15 01:59:44;;;;;;;3.53;2.85;;;11.20;99.90;;;;;;5000244;28;20434;-47
2022/06/15 02:02:30;;;;;;;6.03;5.43;;;11.10;99.90;;;;;;4995775;28;20211;-46
2022/06/15 02:05:17;;;;;;;3.88;3.50;;;11.00;99.90;;;;;;4995157;28;20237;-48
2022/06/15 02:07:49;;;;;;;4.47;3.40;;;11.10;99.90;;;;;;5000327;28;20201;-48
2022/06/15 02:10:43;;;;;;;3.10;2.80;;;11.20;99.90;;;;;;5000509;28;20234;-46
2022/06/15 02:13:22;;;;;;;4.25;3.83;;;11.10;99.90;;;;;;5000424;28;20483;-46
2022/06/15 02:16:05;;;;;;;3.05;2.75;;;11.20;99.90;;;;;;4992215;28;20552;-51
2022/06/15 02:18:34;;;;;;;3.20;2.83;;;11.30;99.90;;;;;;4999739;28;20275;-51
2022/06/15 02:21:10;;;;;;;5.32;3.28;;;11.20;99.90;;;;;;4999895;28;20200;-46
2022/06/15 02:23:40;;;;;;;5.72;3.40;;;11.10;99.90;;;;;;5000456;28;20226;-50
2022/06/15 02:26:08;;;;;;;4.20;3.60;;;11.10;99.90;;;;;;5000133;28;20554;-53
2022/06/15 02:28:40;;;;;;;8.73;3.72;;;11.00;99.90;;;;;;5000148;28;20214;-48
2022/06/15 02:31:08;;;;;;;3.92;3.55;;;11.00;99.90;;;;;;4995167;28;20214;-47
2022/06/15 02:33:56;;;;;;;7.03;3.80;;;11.00;99.90;;;;;;4999941;28;20224;-46
2022/06/15 02:36:24;;;;;;;5.00;3.40;;;10.90;99.90;;;;;;4996798;28;20206;-48
2022/06/15 02:38:52;;;;;;;4.40;3.97;;;10.90;99.90;;;;;;5000236;28;20199;-47
2022/06/15 02:41:21;;;;;;;10.02;3.75;;;10.90;99.90;;;;;;5000462;28;20199;-46
2022/06/15 02:43:51;;;;;;;3.58;3.28;;;10.90;99.90;;;;;;4996195;28;20201;-47
2022/06/15 02:46:20;;;;;;;8.15;4.38;;;11.00;99.90;;;;;;4999207;28;20292;-47
2022/06/15 02:48:48;;;;;;;4.82;3.75;;;11.00;99.90;;;;;;4999445;28;20511;-49
2022/06/15 02:51:33;;;;;;;8.32;4.47;;;11.20;99.90;;;;;;5000020;28;20212;-53
2022/06/15 02:54:26;;;;;;;4.07;3.65;;;11.20;99.90;;;;;;4992853;28;20423;-45
2022/06/15 02:56:54;;;;;;;3.60;3.30;;;11.20;99.90;;;;;;4999940;28;20219;-49
2022/06/15 02:59:22;;;;;;;4.35;3.95;;;11.20;99.90;;;;;;4999483;28;20495;-46
2022/06/15 03:01:49;;;;;;;6.43;4.47;;;11.20;99.90;;;;;;4999893;28;20206;-48
2022/06/15 03:04:16;;;;;;;9.68;4.53;;;10.90;99.90;;;;;;4999514;28;21937;-46
2022/06/15 03:06:44;;;;;;;4.93;3.20;;;11.00;99.90;;;;;;4999610;28;20204;-48
2022/06/15 03:09:11;;;;;;;5.13;4.70;;;11.20;99.90;;;;;;5000207;28;20211;-46
2022/06/15 03:11:42;;;;;;;5.10;4.47;;;11.30;99.90;;;;;;4999426;28;20510;-47
2022/06/15 03:14:09;;;;;;;14.32;4.00;;;11.40;99.90;;;;;;4999751;28;20235;-46
2022/06/15 03:16:38;;;;;;;5.10;3.60;;;11.60;99.90;;;;;;4999537;28;20217;-50
2022/06/15 03:19:05;;;;;;;5.55;3.90;;;11.70;99.90;;;;;;4999975;28;20201;-47
2022/06/15 03:21:34;;;;;;;6.38;3.10;;;11.70;99.90;;;;;;4999001;28;20210;-52
2022/06/15 03:24:01;;;;;;;8.82;5.05;;;11.80;99.90;;;;;;4999558;28;20216;-48
2022/06/15 03:26:28;;;;;;;4.93;4.30;;;12.00;99.90;;;;;;5000880;28;20229;-46
2022/06/15 03:28:55;;;;;;;6.25;3.92;;;12.20;99.90;;;;;;5003375;28;20244;-47
2022/06/15 03:31:23;;;;;;;6.70;4.22;;;12.40;99.90;;;;;;5002842;28;20212;-44
2022/06/15 03:33:50;;;;;;;5.78;3.90;;;12.60;99.90;;;;;;5003034;28;20221;-46
2022/06/15 03:36:18;;;;;;;4.07;3.08;;;12.90;99.90;;;;;;5002422;28;20225;-50
2022/06/15 03:38:45;;;;;;;6.85;4.45;;;13.30;99.90;;;;;;5002778;28;20197;-47
2022/06/15 03:41:13;;;;;;;5.90;4.15;;;14.00;99.90;;;;;;5002943;28;20508;-49
2022/06/15 03:43:40;;;;;;;3.58;2.88;;;14.50;99.90;;;;;;5002418;28;20209;-50
2022/06/15 03:46:08;;;;;;;3.33;3.03;;;14.90;99.90;;;;;;5002972;28;20291;-48
2022/06/15 03:48:35;;;;;;;3.10;2.83;;;15.10;99.90;;;;;;5002367;28;20197;-52
2022/06/15 03:51:02;;;;;;;7.68;4.15;;;15.00;99.90;;;;;;5002559;28;20202;-46
2022/06/15 03:53:29;;;;;;;4.03;3.72;;;15.10;99.90;;;;;;5002421;28;20202;-48
2022/06/15 03:55:57;;;;;;;5.07;4.03;;;15.40;99.90;;;;;;5002487;28;20227;-49
2022/06/15 03:58:24;;;;;;;7.60;3.97;;;15.10;99.90;;;;;;5001892;28;20198;-46
2022/06/15 04:00:52;;;;;;;7.22;4.35;;;15.10;99.90;;;;;;5002585;28;20198;-47
2022/06/15 04:03:19;;;;;;;5.10;4.68;;;14.80;99.90;;;;;;5001942;28;20206;-45
2022/06/15 04:05:54;;;;;;;5.13;3.95;;;14.70;99.90;;;;;;4994308;28;20243;-48
2022/06/15 04:08:38;;;;;;;6.55;3.70;;;14.90;99.90;;;;;;5002658;28;20376;-51
2022/06/15 04:11:11;;;;;;;16.52;5.03;;;15.00;99.90;;;;;;5002604;28;20208;-46
2022/06/15 04:13:39;;;;;;;7.15;5.07;;;14.90;99.90;;;;;;5000882;28;20405;-48
2022/06/15 04:16:11;;;;;;;7.93;5.55;;;14.90;99.90;;;;;;5001966;28;20526;-53
2022/06/15 04:18:39;;;;;;;7.60;5.93;;;15.10;99.90;;;;;;5002089;28;20413;-49
2022/06/15 04:21:06;;;;;;;9.77;8.20;;;15.20;99.90;;;;;;5001917;28;20232;-48
2022/06/15 04:23:33;;;;;;;10.15;9.00;;;15.20;99.90;;;;;;5001859;28;20458;-47
2022/06/15 04:26:03;;;;;;;13.52;11.95;;;15.00;99.90;;;;;;5002333;28;20284;-47
2022/06/15 04:28:33;;;;;;;11.23;9.05;;;14.70;99.90;;;;;;5002007;28;20213;-48
2022/06/15 04:31:00;;;;;;;13.68;9.43;;;14.60;99.90;;;;;;5002085;28;20214;-47
2022/06/15 04:33:28;;;;;;;10.63;8.52;;;14.60;99.90;;;;;;5001624;28;20429;-48
2022/06/15 04:35:56;;;;;;;14.30;8.45;;;14.50;99.90;;;;;;5001478;28;20460;-48
2022/06/15 04:38:24;;;;;;;6.65;6.15;;;14.50;99.90;;;;;;5001419;28;20221;-49
2022/06/15 04:40:52;;;;;;;8.20;7.47;;;14.40;99.90;;;;;;5001417;28;20213;-48
2022/06/15 04:43:21;;;;;;;8.32;7.53;;;14.50;99.90;;;;;;5001299;28;20399;-49
2022/06/15 04:45:49;;;;;;;8.15;7.22;;;14.60;99.90;;;;;;5001243;28;20218;-46
2022/06/15 04:48:17;;;;;;;9.80;7.00;;;14.50;99.90;;;;;;5001313;28;20398;-53
2022/06/15 04:50:44;;;;;;;5.93;5.43;;;14.70;99.90;;;;;;5001229;28;20203;-46
2022/06/15 04:53:11;;;;;;;17.00;8.55;;;14.80;99.90;;;;;;5000850;28;20282;-48
2022/06/15 04:55:38;;;;;;;5.93;5.38;;;14.70;99.90;;;;;;5000829;28;20241;-50
2022/06/15 04:58:06;;;;;;;7.50;6.72;;;14.70;99.90;;;;;;5000997;28;20229;-48
2022/06/15 05:00:37;;;;;;;10.85;6.35;;;15.00;99.90;;;;;;5001053;28;20291;-51
2022/06/15 05:03:04;;;;;;;8.13;5.57;;;15.10;99.90;;;;;;5001073;28;20543;-49
2022/06/15 05:05:32;;;;;;;8.32;4.63;;;15.20;99.90;;;;;;5000788;28;20293;-44
2022/06/15 05:07:59;;;;;;;5.80;5.10;;;15.10;99.90;;;;;;5001265;28;20270;-48
2022/06/15 05:10:27;;;;;;;5.20;4.70;;;15.20;99.90;;;;;;5000752;28;20403;-53
2022/06/15 05:12:54;;;;;;;6.72;4.55;;;15.20;99.90;;;;;;5001092;28;20194;-49
2022/06/15 05:15:21;;;;;;;5.35;4.85;;;15.50;99.90;;;;;;5000531;28;20544;-46
2022/06/15 05:17:50;;;;;;;8.68;4.55;;;15.60;99.90;;;;;;5000888;28;20199;-47
2022/06/15 05:20:18;;;;;;;4.90;3.83;;;15.70;99.90;;;;;;5000943;28;20206;-48
2022/06/15 05:22:53;;;;;;;3.87;3.57;;;15.90;99.90;;;;;;4993808;28;20454;-48
2022/06/15 05:25:21;;;;;;;3.90;3.13;;;15.90;99.90;;;;;;5000296;28;20460;-51
2022/06/15 05:27:49;;;;;;;4.47;4.07;;;15.90;99.90;;;;;;5000525;28;20439;-52
2022/06/15 05:30:17;;;;;;;9.20;4.40;;;16.00;99.90;;;;;;5000364;28;20455;-44
2022/06/15 05:32:44;;;;;;;8.13;4.80;;;16.00;99.90;;;;;;4999496;28;20206;-49
2022/06/15 05:35:11;;;;;;;4.90;4.00;;;16.00;99.90;;;;;;4999781;28;20486;-48
2022/06/15 05:37:39;;;;;;;3.63;3.00;;;16.30;99.90;;;;;;4999881;28;20449;-44
2022/06/15 05:40:07;;;;;;;3.80;3.40;;;16.50;99.90;;;;;;4999889;28;20437;-45
2022/06/15 05:42:35;;;;;;;6.70;4.00;;;16.50;99.90;;;;;;4999060;28;20743;-50
2022/06/15 05:45:03;;;;;;;5.30;3.40;;;16.70;99.90;;;;;;5000090;28;20471;-48
2022/06/15 05:47:31;;;;;;;5.10;2.97;;;16.80;99.90;;;;;;5000064;28;20448;-47
2022/06/15 05:49:59;;;;;;;14.20;7.07;;;16.70;99.90;;;;;;4993942;28;20668;-52
2022/06/15 05:52:27;;;;;;;8.40;4.67;;;16.80;99.90;;;;;;5000367;28;20486;-49
2022/06/15 05:54:58;;;;;;;6.03;4.30;;;17.00;99.90;;;;;;5000233;28;20482;-53
2022/06/15 05:57:26;;;;;;;3.70;2.80;;;16.90;99.90;;;;;;5000398;28;20613;-48
2022/06/15 05:59:57;;;;;;;9.40;3.10;;;16.90;99.90;;;;;;4999014;28;20502;-47
2022/06/15 06:02:27;;;;;;;4.77;2.97;;;16.90;99.90;;;;;;4999770;28;20734;-52
2022/06/15 06:04:54;;;;;;;6.03;3.20;;;17.30;99.90;;;;;;4999679;28;20470;-48
2022/06/15 06:07:22;;;;;;;8.63;3.10;;;17.50;99.90;;;;;;5000200;28;20772;-47
2022/06/15 06:09:50;;;;;;;4.03;3.23;;;17.50;99.90;;;;;;5003380;28;20409;-44
2022/06/15 06:12:18;;;;;;;6.50;4.07;;;17.40;99.90;;;;;;5000590;28;20438;-49
2022/06/15 06:14:46;;;;;;;4.13;2.90;;;17.60;99.90;;;;;;4999052;28;20483;-46
2022/06/15 06:17:14;;;;;;;3.10;2.90;;;17.90;99.90;;;;;;4999747;28;20446;-48
2022/06/15 06:19:41;;;;;;;5.00;4.10;;;18.10;99.90;;;;;;4999336;28;20495;-48
2022/06/15 06:22:09;;;;;;;3.83;3.50;;;18.50;99.90;;;;;;4999396;28;20749;-46
2022/06/15 06:24:36;;;;;;;3.93;2.80;;;19.00;99.90;;;;;;4999546;28;20459;-51
2022/06/15 06:27:05;;;;;;;6.77;4.73;;;19.50;99.90;;;;;;4999257;28;20435;-50
2022/06/15 06:29:34;;;;;;;5.90;3.83;;;19.90;99.90;;;;;;4999156;28;20768;-47
2022/06/15 06:32:01;;;;;;;4.20;2.83;;;20.20;99.90;;;;;;4999192;28;20485;-46
2022/06/15 06:34:31;;;;;;;5.07;3.00;;;20.10;99.90;;;;;;4999213;28;20464;-48
2022/06/15 06:37:00;;;;;;;3.67;3.07;;;20.00;99.90;;;;;;4998965;28;20465;-51
2022/06/15 06:39:30;;;;;;;4.63;2.67;;;20.10;99.90;;;;;;4999143;28;20657;-50
2022/06/15 06:42:00;;;;;;;2.50;2.30;;;20.30;99.90;;;;;;4999336;28;20478;-49
2022/06/15 06:44:27;;;;;;;6.60;4.43;;;20.20;99.90;;;;;;4998865;28;20441;-49
2022/06/15 06:46:55;;;;;;;7.37;3.73;;;20.10;99.90;;;;;;4999493;28;20423;-49
2022/06/15 06:49:23;;;;;;;6.10;2.43;;;20.40;99.90;;;;;;4999083;28;20759;-47
2022/06/15 06:51:51;;;;;;;6.03;2.40;;;21.20;99.90;;;;;;4999388;28;20478;-48
2022/06/15 06:54:21;;;;;;;2.93;2.60;;;22.70;99.90;;;;;;4999369;28;20469;-47
2022/06/15 06:56:49;;;;;;;3.30;2.10;;;23.90;99.90;;;;;;4991520;28;20776;-49
2022/06/15 06:59:17;;;;;;;1.73;1.63;;;24.70;99.90;;;;;;4999493;28;20434;-48
2022/06/15 07:01:46;;;;;;;2.63;1.80;;;24.60;99.90;;;;;;5002823;28;20502;-50
2022/06/15 07:04:16;;;;;;;4.87;2.27;;;24.40;99.40;;;;;;5003323;28;20462;-52
2022/06/15 07:06:44;;;;;;;3.83;1.77;;;25.20;97.30;;;;;;5000641;28;20817;-49
2022/06/15 07:09:13;;;;;;;12.60;2.20;;;26.20;94.60;;;;;;5003582;28;20461;-47
2022/06/15 07:11:44;;;;;;;2.10;1.70;;;27.20;92.30;;;;;;5002565;28;20443;-53
2022/06/15 07:14:12;;;;;;;1.77;1.50;;;27.90;87.90;;;;;;5003196;28;20516;-49
2022/06/15 07:16:41;;;;;;;2.07;1.70;;;28.40;84.70;;;;;;5002824;28;20439;-49
2022/06/15 07:19:08;;;;;;;3.07;1.70;;;29.90;77.60;;;;;;5002980;28;20443;-48
2022/06/15 07:21:38;;;;;;;9.63;1.83;;;30.70;71.10;;;;;;5001773;28;20442;-49
2022/06/15 07:24:07;;;;;;;2.17;1.97;;;31.80;67.40;;;;;;5002391;28;20443;-50
2022/06/15 07:26:47;;;;;;;2.00;1.80;;;33.30;61.90;;;;;;5002683;28;20473;-50
2022/06/15 07:29:20;;;;;;;2.50;1.60;;;33.10;58.50;;;;;;4998721;28;20670;-48
2022/06/15 07:31:51;;;;;;;2.50;1.30;;;33.30;57.30;;;;;;4996999;28;20430;-51
2022/06/15 07:34:19;;;;;;;3.13;1.80;;;35.10;54.80;;;;;;5002126;28;20657;-53
2022/06/15 07:36:47;;;;;;;1.57;1.47;;;33.30;56.10;;;;;;5002837;28;20613;-51
2022/06/15 07:39:27;;;;;;;3.20;1.60;;;33.70;53.90;;;;;;5002368;28;20788;-49
2022/06/15 07:42:00;;;;;;;1.80;1.70;;;35.60;51.80;;;;;;5016764;28;20438;-49
2022/06/15 07:44:28;;;;;;;8.27;2.13;;;37.50;49.30;;;;;;5002489;28;20447;-53
2022/06/15 07:49:54;;;;;;;2.60;1.77;;;38.10;46.70;;;;;;5001802;28;20458;-55
2022/06/15 07:52:46;;;;;;;3.63;1.33;;;38.40;44.90;;;;;;5001849;28;20428;-53
2022/06/15 07:55:17;;;;;;;2.10;1.50;;;37.80;44.80;;;;;;5001761;28;20479;-52
2022/06/15 07:57:45;;;;;;;1.70;1.60;;;35.90;46.00;;;;;;5001380;28;20455;-50
2022/06/15 08:00:14;;;;;;;2.73;1.37;;;36.20;46.30;;;;;;5002140;28;20784;-49
2022/06/15 08:02:41;;;;;;;1.93;1.30;;;35.50;46.10;;;;;;5001972;28;20446;-49
2022/06/15 08:05:10;;;;;;;1.90;1.57;;;35.60;46.60;;;;;;5001743;28;20477;-55
2022/06/15 08:07:37;;;;;;;1.97;1.73;;;36.50;46.30;;;;;;5001805;28;20443;-48
2022/06/15 08:10:05;;;;;;;2.53;1.40;;;37.90;45.90;;;;;;5001182;28;20439;-53
2022/06/15 08:12:33;;;;;;;2.50;2.03;;;39.80;44.20;;;;;;5001449;28;20431;-49
2022/06/15 08:15:02;;;;;;;3.33;1.80;;;41.80;41.80;;;;;;5001915;28;20477;-53
2022/06/15 08:17:43;;;;;;;1.77;1.50;;;43.40;40.40;;;;;;5001789;28;20441;-54
2022/06/15 08:20:42;;;;;;;2.83;1.53;;;43.50;38.50;;;;;;5001474;28;20808;-51
2022/06/15 08:23:15;;;;;;;2.93;1.93;;;42.50;39.00;;;;;;4997455;28;20713;-52
2022/06/15 08:25:49;;;;;;;5.10;1.80;;;41.40;38.30;;;;;;5001174;28;20535;-51
2022/06/15 08:28:20;;;;;;;2.40;1.43;;;40.80;39.60;;;;;;5002013;28;20493;-49
2022/06/15 08:30:51;;;;;;;2.20;1.23;;;40.90;39.40;;;;;;5001284;28;20467;-52
2022/06/15 08:33:19;;;;;;;1.90;1.77;;;41.00;39.80;;;;;;5001401;28;20782;-52
2022/06/15 08:35:47;;;;;;;3.10;1.83;;;39.50;39.90;;;;;;5000481;28;20475;-52
2022/06/15 08:38:16;;;;;;;5.07;1.73;;;40.00;39.00;;;;;;5000789;28;20689;-52
2022/06/15 08:40:59;;;;;;;1.50;1.40;;;40.80;37.70;;;;;;5000878;28;20446;-53
2022/06/15 08:43:48;;;;;;;1.93;1.47;;;40.00;38.20;;;;;;5001345;28;20483;-54
2022/06/15 08:46:54;;;;;;;2.00;1.90;;;40.30;38.50;;;;;;4997401;28;20463;-51
2022/06/15 08:49:40;;;;;;;4.47;1.40;;;40.40;38.20;;;;;;5003869;28;20529;-49
2022/06/15 08:52:29;;;;;;;8.80;1.70;;;40.60;37.60;;;;;;4993107;28;20439;-51
2022/06/15 08:55:05;;;;;;;3.20;1.47;;;40.60;38.00;;;;;;4999290;28;20547;-51
2022/06/15 08:57:47;;;;;;;2.23;1.70;;;39.50;38.70;;;;;;5000997;28;20451;-54
2022/06/15 09:00:18;;;;;;;3.53;1.70;;;39.50;39.20;;;;;;4997807;28;20439;-53
2022/06/15 09:03:09;;;;;;;1.40;1.30;;;40.20;38.90;;;;;;4995507;28;20486;-52
2022/06/15 09:06:12;;;;;;;2.40;1.50;;;41.30;37.50;;;;;;4999434;28;20483;-52
2022/06/15 09:08:54;;;;;;;4.40;1.63;;;37.70;39.70;;;;;;4987188;28;20477;-54
2022/06/15 09:15:18;;;;;;;2.73;1.53;;;36.10;42.20;;;;;;4921875;29;20495;-54
2022/06/15 09:17:48;;;;;;;1.83;1.50;;;37.50;41.00;;;;;;4982673;28;20440;-51
2022/06/15 09:20:32;;;;;;;1.57;1.47;;;37.90;40.30;;;;;;4999821;28;20615;-52
2022/06/15 09:23:17;;;;;;;2.60;1.40;;;38.50;40.50;;;;;;4998543;28;20450;-54
2022/06/15 09:25:52;;;;;;;1.13;1.03;;;39.40;39.70;;;;;;4999914;28;20836;-52
2022/06/15 09:28:28;;;;;;;3.40;1.90;;;39.10;39.30;;;;;;5000931;28;20439;-53
2022/06/15 09:31:07;;;;;;;4.30;1.70;;;38.60;40.20;;;;;;5001068;28;20430;-48
2022/06/15 09:33:47;;;;;;;2.00;1.20;;;39.20;39.00;;;;;;5000189;28;20443;-48
2022/06/15 09:36:20;;;;;;;2.00;1.27;;;37.90;40.00;;;;;;4999999;28;20534;-53
2022/06/15 09:38:47;;;;;;;1.60;1.50;;;35.60;42.30;;;;;;4996350;28;20437;-55
2022/06/15 09:41:33;;;;;;;2.20;1.47;;;33.40;44.80;;;;;;5000480;28;20442;-50
2022/06/15 09:44:16;;;;;;;1.77;1.30;;;31.20;48.10;;;;;;4997459;28;20518;-50
2022/06/15 09:47:24;;;;;;;3.23;1.47;;;29.90;49.10;;;;;;4994642;28;20431;-48
2022/06/15 09:50:11;;;;;;;4.37;1.93;;;28.30;50.80;;;;;;5014817;28;20436;-52
2022/06/15 09:52:42;;;;;;;1.20;1.10;;;27.30;53.30;;;;;;4999491;28;20773;-50
2022/06/15 09:55:23;;;;;;;3.17;1.80;;;26.80;54.20;;;;;;4999924;28;20630;-53
2022/06/15 09:57:54;;;;;;;3.93;2.10;;;26.00;55.00;;;;;;4993974;28;20446;-54
2022/06/15 10:00:21;;;;;;;2.30;2.00;;;25.20;56.10;;;;;;5000459;28;20448;-49
2022/06/15 10:03:01;;;;;;;2.77;2.40;;;25.00;57.40;;;;;;5000190;28;20432;-51
2022/06/15 10:05:33;;;;;;;1.30;1.20;;;25.10;58.20;;;;;;4997813;28;20512;-49
2022/06/15 10:08:04;;;;;;;2.60;1.37;;;25.20;57.90;;;;;;4999557;28;20454;-50
2022/06/15 10:10:38;;;;;;;2.10;1.23;;;25.40;57.10;;;;;;4998595;28;20467;-52
2022/06/15 10:13:29;;;;;;;1.20;1.10;;;25.40;57.50;;;;;;4999961;28;20650;-48
2022/06/15 10:16:02;;;;;;;3.50;1.53;;;25.50;57.50;;;;;;5000118;28;20478;-50
2022/06/15 10:18:48;;;;;;;3.33;1.30;;;25.40;56.80;;;;;;4999433;28;20444;-52
2022/06/15 10:21:15;;;;;;;1.93;1.10;;;25.60;57.50;;;;;;4996310;28;20443;-51
2022/06/15 10:24:03;;;;;;;2.17;1.30;;;25.60;56.20;;;;;;4999097;28;20499;-47
2022/06/15 10:26:51;;;;;;;1.30;1.20;;;25.30;56.10;;;;;;4999305;28;20453;-49
2022/06/15 10:29:30;;;;;;;3.43;1.47;;;25.20;56.70;;;;;;4994975;28;20449;-45
2022/06/15 10:32:10;;;;;;;1.20;1.10;;;25.00;56.90;;;;;;4995532;28;20490;-47
2022/06/15 10:34:42;;;;;;;5.10;1.50;;;24.50;58.20;;;;;;4999991;28;20801;-51
2022/06/15 10:37:32;;;;;;;2.93;2.00;;;24.30;59.70;;;;;;5003244;28;20482;-50
2022/06/15 10:40:18;;;;;;;1.97;1.63;;;24.30;60.40;;;;;;4997631;28;20442;-50
2022/06/15 10:42:53;;;;;;;2.10;2.00;;;24.10;59.30;;;;;;5003571;28;20418;-46
2022/06/15 10:45:26;;;;;;;4.13;1.43;;;23.90;60.40;;;;;;5003674;28;20514;-48
2022/06/15 10:48:00;;;;;;;2.97;2.10;;;24.00;62.20;;;;;;4996546;28;20406;-49
2022/06/15 10:50:32;;;;;;;2.30;1.53;;;24.10;60.50;;;;;;5003597;28;20432;-49
2022/06/15 10:53:41;;;;;;;1.70;1.37;;;24.10;60.70;;;;;;5003312;28;20417;-50
2022/06/15 11:02:37;;;;;;;3.10;1.47;;;23.70;60.70;;;;;;5000175;28;20520;-53
2022/06/15 11:05:17;;;;;;;1.53;1.40;;;23.30;61.50;;;;;;5002799;28;20490;-53
2022/06/15 11:08:01;;;;;;;4.80;1.30;;;23.30;61.50;;;;;;5002332;28;20800;-48
2022/06/15 11:10:31;;;;;;;3.60;1.70;;;23.40;61.80;;;;;;5000776;28;20441;-46
2022/06/15 11:13:04;;;;;;;2.00;1.60;;;23.50;63.30;;;;;;5001520;28;20489;-47
2022/06/15 11:18:38;;;;;;;2.10;1.40;;;23.40;61.50;;;;;;5003237;28;20474;-50
2022/06/15 11:21:12;;;;;;;5.97;1.77;;;23.60;62.50;;;;;;5003339;28;20481;-49
2022/06/15 11:23:49;;;;;;;1.67;1.33;;;23.70;62.00;;;;;;5003805;28;20427;-49
2022/06/15 11:26:54;;;;;;;1.83;1.50;;;23.60;61.60;;;;;;5003087;28;20826;-49
2022/06/15 11:29:33;;;;;;;1.53;1.43;;;23.70;62.30;;;;;;4999848;28;20434;-50
2022/06/15 11:32:10;;;;;;;1.90;1.53;;;23.80;62.00;;;;;;5002287;28;20421;-47
2022/06/15 11:34:57;;;;;;;5.33;1.50;;;24.00;61.40;;;;;;5002578;28;20473;-51
2022/06/15 11:37:31;;;;;;;2.77;1.50;;;24.10;61.60;;;;;;5002267;28;20470;-49
2022/06/15 11:40:12;;;;;;;1.43;1.33;;;24.20;62.50;;;;;;5002561;28;20513;-49
2022/06/15 11:42:39;;;;;;;1.90;1.70;;;24.20;61.70;;;;;;5002343;28;20829;-48
2022/06/15 11:45:14;;;;;;;1.67;1.13;;;23.90;62.10;;;;;;5002578;28;20493;-51
2022/06/15 11:48:07;;;;;;;2.30;1.47;;;24.10;62.80;;;;;;5000779;28;20837;-51
2022/06/15 11:50:51;;;;;;;1.27;1.17;;;24.30;62.90;;;;;;5001696;28;20647;-50
2022/06/15 11:53:36;;;;;;;2.10;0.97;;;24.20;61.10;;;;;;5001959;28;20559;-51
2022/06/15 11:56:11;;;;;;;3.70;1.60;;;23.90;61.70;;;;;;4996441;28;20478;-46
2022/06/15 11:58:47;;;;;;;1.10;1.10;;;23.90;62.60;;;;;;5001524;28;20417;-53
2022/06/15 12:01:36;;;;;;;1.20;1.10;;;24.10;62.50;;;;;;5002399;28;20884;-54
2022/06/15 12:04:34;;;;;;;2.03;1.83;;;24.40;61.50;;;;;;5002048;28;20417;-48
2022/06/15 12:07:27;;;;;;;1.43;1.30;;;24.60;59.70;;;;;;4999080;28;20477;-51
2022/06/15 12:10:25;;;;;;;1.67;1.57;;;24.80;59.60;;;;;;4999683;28;20522;-52
2022/06/15 12:12:59;;;;;;;1.60;1.50;;;24.90;58.10;;;;;;4994986;28;20510;-51
2022/06/15 12:15:53;;;;;;;1.33;1.10;;;24.60;58.50;;;;;;5001510;28;20440;-50
2022/06/15 12:18:50;;;;;;;1.80;1.10;;;24.70;59.30;;;;;;4998980;28;20523;-53
2022/06/15 12:21:34;;;;;;;1.30;0.90;;;24.80;58.80;;;;;;4997962;28;20440;-52
2022/06/15 12:24:16;;;;;;;2.03;1.57;;;25.00;59.00;;;;;;4995816;28;20544;-51
2022/06/15 12:27:02;;;;;;;1.73;1.27;;;25.20;59.30;;;;;;5000665;28;20419;-51
2022/06/15 12:29:40;;;;;;;2.57;2.17;;;25.20;59.20;;;;;;5001246;28;20430;-46
2022/06/15 12:32:33;;;;;;;1.10;1.00;;;25.40;58.60;;;;;;5001283;28;20447;-52
2022/06/15 12:35:12;;;;;;;2.70;1.20;;;25.60;58.30;;;;;;5000935;28;20493;-51
2022/06/15 12:38:01;;;;;;;5.57;1.23;;;25.50;58.10;;;;;;4999633;28;20454;-50
2022/06/15 12:40:32;;;;;;;3.30;1.67;;;25.40;58.10;;;;;;5000728;28;20814;-49
2022/06/15 12:43:38;;;;;;;1.37;1.00;;;25.50;58.80;;;;;;4999577;28;20405;-50
2022/06/15 12:46:16;;;;;;;5.40;1.73;;;25.50;58.50;;;;;;4994984;28;20459;-53
2022/06/15 12:49:30;;;;;;;1.10;1.10;;;25.40;58.00;;;;;;4999097;28;20436;-48
2022/06/15 12:52:35;;;;;;;1.20;0.93;;;25.20;58.20;;;;;;5001295;28;20453;-48
2022/06/15 12:55:12;;;;;;;1.87;1.20;;;25.20;57.90;;;;;;4995507;28;20445;-50
2022/06/15 12:57:57;;;;;;;1.30;1.20;;;25.10;58.10;;;;;;5000048;28;20478;-49
2022/06/15 13:00:36;;;;;;;1.27;1.10;;;25.10;58.80;;;;;;4998210;28;20442;-51
2022/06/15 13:03:26;;;;;;;2.03;1.63;;;24.90;59.00;;;;;;4997794;28;20493;-53
2022/06/15 13:06:29;;;;;;;2.50;1.40;;;24.80;59.20;;;;;;5000758;28;20459;-48
2022/06/15 13:09:14;;;;;;;2.80;1.87;;;25.10;59.80;;;;;;5001147;28;20835;-53
2022/06/15 13:12:04;;;;;;;2.40;1.13;;;25.40;59.40;;;;;;4999746;28;20433;-51
2022/06/15 13:14:51;;;;;;;1.37;1.10;;;25.70;57.60;;;;;;5000205;28;20475;-50
2022/06/15 13:17:23;;;;;;;1.60;1.10;;;25.40;57.90;;;;;;4996654;28;20652;-50
2022/06/15 13:20:00;;;;;;;1.63;1.07;;;24.60;58.70;;;;;;5000273;28;20443;-50
2022/06/15 13:22:32;;;;;;;1.90;1.07;;;24.60;59.00;;;;;;4997353;28;20470;-58
2022/06/15 13:25:17;;;;;;;1.50;1.40;;;24.60;59.70;;;;;;4999710;28;20483;-52
2022/06/15 13:28:08;;;;;;;1.47;1.37;;;24.70;59.50;;;;;;5000169;28;20462;-47
2022/06/15 13:30:47;;;;;;;1.37;1.27;;;24.90;59.20;;;;;;4999568;28;20443;-50
2022/06/15 13:33:17;;;;;;;1.50;1.23;;;25.00;58.60;;;;;;4998778;28;20435;-51
2022/06/15 13:36:12;;;;;;;1.83;1.07;;;25.10;59.10;;;;;;5000293;28;20535;-50
2022/06/15 13:38:43;;;;;;;1.57;1.47;;;25.20;59.30;;;;;;4999721;28;20455;-49
2022/06/15 13:41:33;;;;;;;1.53;1.43;;;25.20;59.10;;;;;;5000462;28;20490;-51